Time;durP1;ratioP1;P1;durP2;ratioP2;P2;SDS_P1;SDS_P2;PMS_P1;PMS_P2;Temp;Humidity;BMP_temperature;BMP_pressure;BME280_temperature;BME280_humidity;BME280_pressure;Samples;Min_cycle;Max_cycle;Signal;HPM_P1;HPM_P2
2023/11/14 00:01:22;;;;;;;1.17;0.20;;;15.20;91.70;;;;;;5054581;28;20055;-62
2023/11/14 00:03:50;;;;;;;0.60;0.10;;;15.20;91.60;;;;;;5055324;28;20033;-63
2023/11/14 00:06:15;;;;;;;1.95;0.10;;;15.20;91.60;;;;;;5054922;28;20036;-63
2023/11/14 00:08:41;;;;;;;0.50;0.10;;;15.10;91.50;;;;;;5054449;28;20033;-63
2023/11/14 00:11:07;;;;;;;1.70;0.25;;;15.10;91.40;;;;;;5053678;28;20036;-63
2023/11/14 00:13:36;;;;;;;0.85;0.30;;;15.10;91.40;;;;;;5053128;28;20037;-63
2023/11/14 00:16:01;;;;;;;0.10;0.10;;;15.00;91.30;;;;;;5054115;28;20079;-63
2023/11/14 00:18:27;;;;;;;0.20;0.20;;;15.00;91.30;;;;;;5052618;28;20066;-63
2023/11/14 00:20:55;;;;;;;1.13;0.10;;;15.00;91.20;;;;;;5052469;28;20035;-63
2023/11/14 00:23:21;;;;;;;0.35;0.10;;;15.00;91.10;;;;;;5052872;28;20615;-62
2023/11/14 00:25:47;;;;;;;0.25;0.10;;;14.90;91.00;;;;;;5051248;28;20124;-63
2023/11/14 00:28:13;;;;;;;0.45;0.10;;;14.90;91.00;;;;;;5054443;28;20029;-63
2023/11/14 00:30:40;;;;;;;2.20;0.30;;;14.90;91.00;;;;;;5052877;28;20041;-63
2023/11/14 00:33:05;;;;;;;0.10;0.00;;;14.80;91.00;;;;;;5053744;28;20445;-63
2023/11/14 00:35:31;;;;;;;0.82;0.20;;;14.90;91.00;;;;;;5055741;28;20124;-63
2023/11/14 00:37:56;;;;;;;1.48;0.20;;;14.80;90.90;;;;;;5057090;28;20033;-63
2023/11/14 00:40:22;;;;;;;0.57;0.22;;;14.80;90.90;;;;;;5057027;28;20089;-63
2023/11/14 00:42:48;;;;;;;2.15;0.10;;;14.80;90.90;;;;;;5057534;28;20462;-64
2023/11/14 00:45:14;;;;;;;0.10;0.10;;;14.80;90.90;;;;;;5057494;28;20048;-63
2023/11/14 00:47:40;;;;;;;0.10;0.00;;;14.70;90.90;;;;;;5058423;28;20040;-63
2023/11/14 00:50:07;;;;;;;0.55;0.28;;;14.70;90.80;;;;;;5056878;28;20037;-63
2023/11/14 00:52:32;;;;;;;0.28;0.10;;;14.70;90.80;;;;;;5056459;28;20051;-63
2023/11/14 00:54:58;;;;;;;0.65;0.10;;;14.70;90.70;;;;;;5056400;28;20029;-63
2023/11/14 00:57:24;;;;;;;0.17;0.08;;;14.70;90.70;;;;;;5056450;28;20071;-63
2023/11/14 00:59:49;;;;;;;0.22;0.10;;;14.70;90.80;;;;;;5056912;28;20071;-63
2023/11/14 01:02:15;;;;;;;0.45;0.10;;;14.60;90.70;;;;;;5055689;28;20060;-63
2023/11/14 01:04:41;;;;;;;0.10;0.05;;;14.60;90.70;;;;;;5057315;28;20049;-63
2023/11/14 01:07:10;;;;;;;2.38;0.40;;;14.60;90.60;;;;;;5055629;28;20382;-63
2023/11/14 01:09:35;;;;;;;0.20;0.15;;;14.50;90.50;;;;;;5055517;28;20033;-63
2023/11/14 01:12:02;;;;;;;0.40;0.10;;;14.50;90.60;;;;;;5051627;28;20040;-63
2023/11/14 01:14:29;;;;;;;0.65;0.10;;;14.50;90.60;;;;;;5055101;28;20420;-63
2023/11/14 01:16:54;;;;;;;0.85;0.10;;;14.50;90.60;;;;;;5055353;28;20025;-62
2023/11/14 01:19:20;;;;;;;0.10;0.10;;;14.40;90.60;;;;;;5056261;28;20044;-63
2023/11/14 01:21:49;;;;;;;0.40;0.20;;;14.40;90.60;;;;;;5056541;28;20459;-62
2023/11/14 01:24:16;;;;;;;0.20;0.10;;;14.40;90.60;;;;;;5055584;28;20043;-63
2023/11/14 01:26:42;;;;;;;0.10;0.10;;;14.40;90.70;;;;;;5054896;28;20037;-62
2023/11/14 01:29:08;;;;;;;0.10;0.10;;;14.40;90.70;;;;;;5055379;28;20033;-63
2023/11/14 01:31:33;;;;;;;0.05;0.00;;;14.40;90.80;;;;;;5055125;28;20058;-62
2023/11/14 01:33:59;;;;;;;1.27;0.30;;;14.30;90.70;;;;;;5056111;28;20032;-62
2023/11/14 01:36:24;;;;;;;0.60;0.20;;;14.30;90.70;;;;;;5055345;28;20072;-62
2023/11/14 01:38:50;;;;;;;0.63;0.13;;;14.40;90.70;;;;;;5054613;28;20447;-63
2023/11/14 01:41:16;;;;;;;0.40;0.10;;;14.30;90.60;;;;;;5055933;28;20577;-62
2023/11/14 01:43:42;;;;;;;1.05;0.10;;;14.30;90.60;;;;;;5055774;28;20053;-63
2023/11/14 01:46:09;;;;;;;1.00;0.20;;;14.20;90.50;;;;;;5055434;28;20120;-62
2023/11/14 01:48:34;;;;;;;0.77;0.30;;;14.20;90.40;;;;;;5056928;28;20032;-62
2023/11/14 01:51:00;;;;;;;1.02;0.13;;;14.20;90.40;;;;;;5056583;28;20035;-63
2023/11/14 01:53:26;;;;;;;0.20;0.20;;;14.20;90.40;;;;;;5054587;28;20323;-64
2023/11/14 01:55:53;;;;;;;0.20;0.10;;;14.20;90.40;;;;;;5056390;28;20572;-62
2023/11/14 01:58:18;;;;;;;0.80;0.10;;;14.10;90.20;;;;;;5055299;28;20445;-62
2023/11/14 02:00:44;;;;;;;1.20;0.13;;;14.10;90.20;;;;;;5052393;28;20033;-63
2023/11/14 02:03:10;;;;;;;0.80;0.30;;;14.10;90.20;;;;;;5050130;28;20029;-62
2023/11/14 02:05:36;;;;;;;0.73;0.30;;;14.00;90.00;;;;;;5055014;28;20029;-63
2023/11/14 02:08:02;;;;;;;1.73;0.30;;;13.90;90.00;;;;;;5054325;28;20510;-63
2023/11/14 02:10:27;;;;;;;0.17;0.15;;;13.90;90.30;;;;;;5053414;28;20029;-62
2023/11/14 02:12:53;;;;;;;0.40;0.17;;;13.90;90.00;;;;;;5053448;28;20033;-62
2023/11/14 02:15:21;;;;;;;1.33;0.28;;;13.80;90.00;;;;;;5053960;28;20039;-63
2023/11/14 02:17:47;;;;;;;1.42;0.20;;;13.80;90.10;;;;;;5055932;28;20031;-63
2023/11/14 02:20:12;;;;;;;1.27;0.28;;;13.70;90.10;;;;;;5055652;28;20032;-63
2023/11/14 02:22:39;;;;;;;0.38;0.20;;;13.70;90.20;;;;;;5053665;28;20543;-62
2023/11/14 02:25:05;;;;;;;1.42;0.32;;;13.60;90.20;;;;;;5054717;28;20029;-63
2023/11/14 02:27:31;;;;;;;0.55;0.20;;;13.60;90.20;;;;;;5055270;28;20520;-62
2023/11/14 02:29:57;;;;;;;1.20;0.30;;;13.60;90.20;;;;;;5055441;28;20424;-62
2023/11/14 02:32:23;;;;;;;1.00;0.25;;;13.50;90.20;;;;;;5055589;28;20037;-62
2023/11/14 02:34:51;;;;;;;0.95;0.20;;;13.60;90.20;;;;;;5052944;28;20036;-61
2023/11/14 02:37:17;;;;;;;0.43;0.22;;;13.50;90.20;;;;;;5053227;28;20106;-63
2023/11/14 02:39:42;;;;;;;1.05;0.20;;;13.50;90.30;;;;;;5054857;28;20044;-63
2023/11/14 02:42:08;;;;;;;0.45;0.20;;;13.50;90.30;;;;;;5054546;28;20029;-63
2023/11/14 02:44:33;;;;;;;3.03;0.30;;;13.40;90.30;;;;;;5054472;28;20078;-62
2023/11/14 02:46:59;;;;;;;0.63;0.30;;;13.40;90.40;;;;;;5055122;28;20028;-63
2023/11/14 02:49:48;;;;;;;1.60;0.30;;;13.40;90.40;;;;;;5054562;28;20041;-62
2023/11/14 02:52:14;;;;;;;1.42;0.38;;;13.40;90.50;;;;;;5054324;28;20056;-63
2023/11/14 02:54:39;;;;;;;0.57;0.30;;;13.40;90.50;;;;;;5054384;28;20137;-62
2023/11/14 02:57:07;;;;;;;2.00;0.30;;;13.30;90.50;;;;;;5053634;28;20036;-63
2023/11/14 02:59:33;;;;;;;0.45;0.17;;;13.30;90.50;;;;;;5053611;28;20119;-63
2023/11/14 03:01:59;;;;;;;1.70;0.65;;;13.30;90.60;;;;;;5053237;28;20095;-63
2023/11/14 03:04:24;;;;;;;1.10;0.50;;;13.30;90.60;;;;;;5052175;28;20572;-62
2023/11/14 03:06:51;;;;;;;0.95;0.40;;;13.30;90.60;;;;;;5054215;28;20569;-61
2023/11/14 03:09:17;;;;;;;0.75;0.20;;;13.30;90.60;;;;;;5053372;28;20396;-63
2023/11/14 03:11:42;;;;;;;0.90;0.20;;;13.30;90.60;;;;;;5052720;28;20037;-63
2023/11/14 03:14:09;;;;;;;1.38;0.40;;;13.30;90.60;;;;;;5053866;28;20309;-63
2023/11/14 03:16:35;;;;;;;3.97;0.30;;;13.30;90.60;;;;;;5053445;28;20045;-63
2023/11/14 03:19:01;;;;;;;0.50;0.25;;;13.30;90.50;;;;;;5054514;28;20049;-63
2023/11/14 03:21:27;;;;;;;1.80;0.40;;;13.20;90.40;;;;;;5054865;28;20546;-63
2023/11/14 03:23:52;;;;;;;1.00;0.20;;;13.30;90.40;;;;;;5053996;28;20666;-63
2023/11/14 03:26:18;;;;;;;1.85;0.40;;;13.20;90.40;;;;;;5054471;28;20500;-63
2023/11/14 03:28:43;;;;;;;1.23;0.30;;;13.20;90.30;;;;;;5055185;28;20504;-62
2023/11/14 03:31:09;;;;;;;1.52;0.60;;;13.20;90.30;;;;;;5053261;28;20036;-63
2023/11/14 03:33:35;;;;;;;1.75;0.75;;;13.20;90.30;;;;;;5053072;28;20032;-62
2023/11/14 03:36:00;;;;;;;2.70;1.00;;;13.20;90.30;;;;;;5053241;28;20041;-62
2023/11/14 03:38:26;;;;;;;2.25;0.63;;;13.20;90.20;;;;;;5054014;28;20083;-63
2023/11/14 03:40:51;;;;;;;1.20;0.30;;;13.20;90.20;;;;;;5052673;28;20493;-63
2023/11/14 03:43:17;;;;;;;1.58;0.43;;;13.10;90.20;;;;;;5053815;28;20025;-62
2023/11/14 03:45:42;;;;;;;1.17;0.30;;;13.10;90.20;;;;;;5053324;28;20070;-62
2023/11/14 03:48:08;;;;;;;0.88;0.20;;;13.10;90.00;;;;;;5052429;28;20535;-61
2023/11/14 03:50:33;;;;;;;1.00;0.32;;;13.10;90.00;;;;;;5053546;28;20025;-62
2023/11/14 03:52:59;;;;;;;1.40;0.50;;;13.10;90.40;;;;;;5052836;28;20037;-60
2023/11/14 03:55:25;;;;;;;1.88;0.32;;;13.10;90.10;;;;;;5052966;28;20037;-62
2023/11/14 03:57:50;;;;;;;1.17;0.30;;;13.00;90.50;;;;;;5052717;28;20047;-63
2023/11/14 04:00:16;;;;;;;1.08;0.30;;;13.00;90.20;;;;;;5053927;28;20508;-63
2023/11/14 04:02:41;;;;;;;1.77;0.40;;;13.00;90.20;;;;;;5053158;28;20412;-62
2023/11/14 04:05:07;;;;;;;1.90;0.40;;;13.00;90.20;;;;;;5054959;28;20489;-63
2023/11/14 04:07:33;;;;;;;0.50;0.30;;;13.00;90.20;;;;;;5056159;28;20429;-61
2023/11/14 04:09:59;;;;;;;1.38;0.30;;;13.00;90.10;;;;;;5059319;28;20482;-61
2023/11/14 04:12:24;;;;;;;2.03;0.32;;;12.90;90.10;;;;;;5057476;28;20065;-63
2023/11/14 04:14:52;;;;;;;1.50;0.50;;;12.90;90.10;;;;;;5056981;28;20036;-63
2023/11/14 04:17:17;;;;;;;2.15;0.40;;;12.90;90.20;;;;;;5059171;28;20177;-62
2023/11/14 04:19:44;;;;;;;1.48;0.30;;;12.90;90.20;;;;;;5059131;28;20116;-62
2023/11/14 04:22:11;;;;;;;1.42;0.35;;;12.90;90.20;;;;;;5058744;28;20553;-62
2023/11/14 04:24:37;;;;;;;2.25;0.52;;;12.90;90.10;;;;;;5058698;28;20045;-63
2023/11/14 04:27:03;;;;;;;2.15;0.38;;;12.80;90.10;;;;;;5059138;28;20025;-62
2023/11/14 04:29:29;;;;;;;1.77;0.55;;;12.80;90.10;;;;;;5059093;28;20166;-62
2023/11/14 04:31:54;;;;;;;1.73;0.52;;;12.80;90.10;;;;;;5057537;28;20462;-62
2023/11/14 04:34:20;;;;;;;1.98;0.50;;;12.80;90.20;;;;;;5058784;28;20040;-63
2023/11/14 04:36:46;;;;;;;2.28;0.55;;;12.80;90.20;;;;;;5057824;28;20408;-62
2023/11/14 04:39:11;;;;;;;3.65;0.47;;;12.80;90.20;;;;;;5057994;28;20500;-62
2023/11/14 04:41:37;;;;;;;2.17;0.40;;;12.70;90.20;;;;;;5058067;28;20028;-63
2023/11/14 04:44:02;;;;;;;1.48;0.52;;;12.70;90.30;;;;;;5058816;28;20025;-61
2023/11/14 04:46:28;;;;;;;1.70;0.50;;;12.70;90.30;;;;;;5057145;28;20037;-63
2023/11/14 04:48:54;;;;;;;1.58;0.40;;;12.70;90.30;;;;;;5058444;28;20036;-62
2023/11/14 04:51:19;;;;;;;1.20;0.40;;;12.70;90.30;;;;;;5057496;28;20508;-62
2023/11/14 04:53:45;;;;;;;1.35;0.40;;;12.70;90.40;;;;;;5058021;28;20053;-62
2023/11/14 04:56:15;;;;;;;0.65;0.30;;;12.70;90.40;;;;;;5057236;28;20040;-63
2023/11/14 04:58:41;;;;;;;1.13;0.40;;;12.70;90.40;;;;;;5056218;28;20036;-63
2023/11/14 05:01:10;;;;;;;1.38;0.30;;;12.70;90.50;;;;;;5052752;28;20082;-63
2023/11/14 05:03:35;;;;;;;1.02;0.40;;;12.70;90.50;;;;;;5055606;28;20053;-63
2023/11/14 05:06:01;;;;;;;1.33;0.40;;;12.70;90.60;;;;;;5056050;28;20124;-62
2023/11/14 05:08:27;;;;;;;1.20;0.30;;;12.70;90.60;;;;;;5055022;28;20087;-61
2023/11/14 05:10:52;;;;;;;1.63;0.60;;;12.70;90.60;;;;;;5054278;28;20045;-63
2023/11/14 05:13:18;;;;;;;1.60;0.20;;;12.80;90.60;;;;;;5055071;28;20041;-61
2023/11/14 05:15:43;;;;;;;1.27;0.30;;;12.70;90.60;;;;;;5056645;28;20032;-62
2023/11/14 05:18:09;;;;;;;1.27;0.50;;;12.80;90.60;;;;;;5056626;28;20040;-63
2023/11/14 05:20:34;;;;;;;2.13;0.38;;;12.80;90.60;;;;;;5054435;28;20074;-63
2023/11/14 05:23:00;;;;;;;2.47;0.52;;;12.70;90.60;;;;;;5054267;28;20132;-62
2023/11/14 05:25:26;;;;;;;1.17;0.30;;;12.80;90.70;;;;;;5054094;28;20400;-63
2023/11/14 05:27:51;;;;;;;0.50;0.30;;;12.80;90.60;;;;;;5057639;28;20044;-63
2023/11/14 05:30:17;;;;;;;0.63;0.20;;;12.80;90.60;;;;;;5057325;28;20044;-62
2023/11/14 05:32:43;;;;;;;1.50;0.10;;;12.80;90.60;;;;;;5057452;28;20131;-63
2023/11/14 05:35:09;;;;;;;0.85;0.40;;;12.80;90.60;;;;;;5057141;28;20029;-63
2023/11/14 05:37:35;;;;;;;2.30;0.40;;;12.80;90.60;;;;;;5057788;28;20047;-62
2023/11/14 05:40:00;;;;;;;1.10;0.40;;;12.80;90.60;;;;;;5057605;28;20048;-63
2023/11/14 05:42:26;;;;;;;1.30;0.22;;;12.80;90.60;;;;;;5057924;28;21262;-62
2023/11/14 05:44:52;;;;;;;1.90;0.30;;;12.80;90.60;;;;;;5057709;28;20029;-63
2023/11/14 05:47:18;;;;;;;1.05;0.20;;;12.80;90.50;;;;;;5058063;28;20485;-63
2023/11/14 05:49:44;;;;;;;2.47;0.28;;;12.70;90.40;;;;;;5057773;28;20033;-63
2023/11/14 05:52:10;;;;;;;0.90;0.38;;;12.80;90.30;;;;;;5057387;28;20040;-62
2023/11/14 05:54:36;;;;;;;1.08;0.38;;;12.80;90.20;;;;;;5056979;28;20036;-62
2023/11/14 05:57:02;;;;;;;1.95;0.40;;;12.70;90.10;;;;;;5056112;28;20052;-62
2023/11/14 05:59:27;;;;;;;2.42;0.47;;;12.70;90.00;;;;;;5056444;28;20055;-62
2023/11/14 06:01:53;;;;;;;1.67;0.40;;;12.70;89.70;;;;;;5057358;28;20037;-63
2023/11/14 06:04:21;;;;;;;2.42;0.35;;;12.60;89.30;;;;;;5056754;28;20153;-63
2023/11/14 06:06:47;;;;;;;1.23;0.40;;;12.60;89.30;;;;;;5056017;28;20037;-64
2023/11/14 06:09:12;;;;;;;2.55;0.50;;;12.60;89.20;;;;;;5057041;28;20116;-63
2023/11/14 06:11:38;;;;;;;4.40;0.40;;;12.60;89.00;;;;;;5054963;28;20135;-63
2023/11/14 06:14:04;;;;;;;1.38;0.38;;;12.50;88.90;;;;;;5054629;28;20041;-63
2023/11/14 06:16:31;;;;;;;1.75;0.50;;;12.50;88.80;;;;;;5055607;28;20078;-63
2023/11/14 06:18:56;;;;;;;2.20;0.60;;;12.50;88.80;;;;;;5056576;28;20064;-63
2023/11/14 06:21:22;;;;;;;1.20;0.50;;;12.50;88.50;;;;;;5055688;28;20067;-63
2023/11/14 06:23:48;;;;;;;2.35;0.38;;;12.40;88.40;;;;;;5056316;28;20044;-63
2023/11/14 06:26:14;;;;;;;2.67;0.52;;;12.40;88.30;;;;;;5055274;28;20075;-63
2023/11/14 06:28:40;;;;;;;2.17;0.40;;;12.40;88.30;;;;;;5055613;28;20535;-64
2023/11/14 06:31:05;;;;;;;1.63;0.60;;;12.40;88.30;;;;;;5055600;28;20039;-63
2023/11/14 06:33:32;;;;;;;1.08;0.40;;;12.30;88.40;;;;;;5056281;28;20032;-63
2023/11/14 06:35:59;;;;;;;1.83;0.50;;;12.30;88.50;;;;;;5056397;28;20029;-63
2023/11/14 06:38:24;;;;;;;1.90;0.40;;;12.20;88.50;;;;;;5055790;28;20037;-64
2023/11/14 06:40:51;;;;;;;1.58;0.60;;;12.20;88.60;;;;;;5056232;28;20036;-63
2023/11/14 06:43:16;;;;;;;2.15;0.50;;;12.20;88.60;;;;;;5056497;28;20546;-63
2023/11/14 06:45:42;;;;;;;1.38;0.40;;;12.10;88.50;;;;;;5056142;28;20041;-63
2023/11/14 06:48:07;;;;;;;1.73;0.52;;;12.10;88.70;;;;;;5055412;28;20117;-63
2023/11/14 06:50:33;;;;;;;1.48;0.35;;;12.00;88.60;;;;;;5056210;28;20043;-63
2023/11/14 06:52:59;;;;;;;0.60;0.40;;;12.00;88.70;;;;;;5056568;28;20025;-63
2023/11/14 06:55:25;;;;;;;4.95;0.50;;;12.00;88.80;;;;;;5055304;28;20039;-63
2023/11/14 06:57:52;;;;;;;2.22;0.30;;;12.00;88.90;;;;;;5055664;28;20121;-63
2023/11/14 07:00:19;;;;;;;1.55;0.40;;;12.00;89.00;;;;;;5055407;28;20140;-63
2023/11/14 07:02:45;;;;;;;1.48;0.20;;;11.90;89.20;;;;;;5055322;28;20497;-63
2023/11/14 07:05:11;;;;;;;1.63;0.32;;;11.90;89.30;;;;;;5055023;28;20071;-63
2023/11/14 07:07:39;;;;;;;0.40;0.20;;;11.90;89.50;;;;;;5055903;28;20048;-63
2023/11/14 07:10:07;;;;;;;0.20;0.20;;;11.90;89.50;;;;;;5055330;28;20040;-63
2023/11/14 07:12:33;;;;;;;0.30;0.20;;;11.90;90.20;;;;;;5051798;28;20408;-63
2023/11/14 07:15:00;;;;;;;1.20;0.38;;;11.90;89.90;;;;;;5053197;28;20363;-64
2023/11/14 07:17:26;;;;;;;1.58;0.20;;;11.90;89.90;;;;;;5055503;28;20041;-64
2023/11/14 07:19:51;;;;;;;2.70;0.30;;;11.90;90.00;;;;;;5055873;28;20519;-64
2023/11/14 07:22:17;;;;;;;0.75;0.30;;;11.90;90.00;;;;;;5054273;28;20040;-63
2023/11/14 07:24:43;;;;;;;0.60;0.43;;;11.80;90.00;;;;;;5055481;28;20040;-63
2023/11/14 07:27:09;;;;;;;0.65;0.30;;;11.90;90.00;;;;;;5055127;28;20531;-63
2023/11/14 07:29:35;;;;;;;0.40;0.40;;;11.80;90.00;;;;;;5055837;28;20041;-64
2023/11/14 07:32:00;;;;;;;1.70;0.40;;;11.90;90.00;;;;;;5055818;28;20101;-63
2023/11/14 07:34:26;;;;;;;1.50;0.50;;;11.90;90.00;;;;;;5055052;28;20033;-63
2023/11/14 07:36:52;;;;;;;1.00;0.30;;;11.90;89.90;;;;;;5055652;28;20491;-64
2023/11/14 07:39:18;;;;;;;0.30;0.20;;;11.90;89.90;;;;;;5054183;28;20113;-64
2023/11/14 07:41:43;;;;;;;0.50;0.22;;;11.90;89.70;;;;;;5055859;28;20087;-63
2023/11/14 07:44:09;;;;;;;0.47;0.40;;;11.90;89.60;;;;;;5058064;28;20037;-63
2023/11/14 07:46:37;;;;;;;2.40;0.50;;;11.90;89.50;;;;;;5059462;28;20032;-62
2023/11/14 07:49:03;;;;;;;1.45;0.40;;;11.90;89.50;;;;;;5058998;28;20036;-63
2023/11/14 07:51:29;;;;;;;0.68;0.30;;;11.90;90.20;;;;;;5060019;28;20033;-64
2023/11/14 07:53:55;;;;;;;1.63;0.80;;;11.90;89.90;;;;;;5059440;28;20115;-63
2023/11/14 07:56:21;;;;;;;0.68;0.50;;;11.90;90.10;;;;;;5059283;28;20301;-64
2023/11/14 07:58:47;;;;;;;0.80;0.40;;;11.90;90.40;;;;;;5059283;28;20485;-64
2023/11/14 08:01:13;;;;;;;0.68;0.68;;;11.90;90.60;;;;;;5059601;28;20031;-64
2023/11/14 08:03:39;;;;;;;0.77;0.40;;;11.90;90.70;;;;;;5059669;28;20032;-63
2023/11/14 08:06:05;;;;;;;1.50;0.30;;;11.90;90.80;;;;;;5059602;28;20109;-64
2023/11/14 08:08:30;;;;;;;0.35;0.20;;;11.90;90.80;;;;;;5058926;28;20033;-63
2023/11/14 08:10:56;;;;;;;0.30;0.22;;;11.90;90.80;;;;;;5058028;28;20119;-63
2023/11/14 08:13:22;;;;;;;0.35;0.28;;;11.90;90.80;;;;;;5058929;28;20033;-63
2023/11/14 08:15:47;;;;;;;0.40;0.40;;;11.90;90.60;;;;;;5057311;28;20040;-63
2023/11/14 08:18:13;;;;;;;1.15;0.38;;;11.90;90.50;;;;;;5058949;28;20442;-64
2023/11/14 08:20:39;;;;;;;0.85;0.20;;;11.80;90.40;;;;;;5058484;28;20044;-64
2023/11/14 08:23:04;;;;;;;1.10;0.40;;;11.90;90.30;;;;;;5057743;28;20029;-64
2023/11/14 08:25:31;;;;;;;1.58;0.30;;;11.80;90.20;;;;;;5058308;28;20104;-64
2023/11/14 08:27:57;;;;;;;0.45;0.20;;;11.80;90.20;;;;;;5058439;28;20431;-63
2023/11/14 08:30:27;;;;;;;1.27;0.28;;;11.80;90.10;;;;;;5056545;28;20103;-63
2023/11/14 08:32:54;;;;;;;2.65;0.40;;;11.80;90.00;;;;;;5058816;28;20025;-63
2023/11/14 08:35:21;;;;;;;1.33;0.30;;;11.70;89.90;;;;;;5058307;28;20132;-64
2023/11/14 08:37:48;;;;;;;0.98;0.20;;;11.70;89.70;;;;;;5058889;28;20037;-64
2023/11/14 08:40:14;;;;;;;2.70;0.30;;;11.70;89.80;;;;;;5058932;28;20052;-64
2023/11/14 08:42:40;;;;;;;1.08;0.20;;;11.60;89.70;;;;;;5058916;28;20051;-63
2023/11/14 08:45:06;;;;;;;1.65;0.40;;;11.60;89.70;;;;;;5058238;28;20021;-63
2023/11/14 08:47:32;;;;;;;1.02;0.30;;;11.60;89.50;;;;;;5058125;28;20447;-64
2023/11/14 08:49:58;;;;;;;2.13;0.43;;;11.50;89.60;;;;;;5058803;28;20037;-64
2023/11/14 08:52:23;;;;;;;2.20;0.50;;;11.50;89.70;;;;;;5058223;28;20032;-64
2023/11/14 08:54:49;;;;;;;2.33;0.57;;;11.50;89.60;;;;;;5057452;28;20048;-63
2023/11/14 08:57:15;;;;;;;2.05;0.40;;;11.40;89.50;;;;;;5057996;28;20044;-64
2023/11/14 08:59:40;;;;;;;1.75;0.40;;;11.40;89.60;;;;;;5058315;28;20099;-64
2023/11/14 09:02:06;;;;;;;1.20;0.30;;;11.40;89.50;;;;;;5054850;28;20037;-64
2023/11/14 09:04:32;;;;;;;1.63;0.50;;;11.40;89.60;;;;;;5057969;28;20118;-64
2023/11/14 09:06:58;;;;;;;2.38;0.52;;;11.30;89.70;;;;;;5059013;28;20044;-64
2023/11/14 09:09:23;;;;;;;1.67;0.60;;;11.30;89.70;;;;;;5058894;28;20085;-65
2023/11/14 09:11:49;;;;;;;1.05;0.40;;;11.30;89.70;;;;;;5056975;28;20500;-64
2023/11/14 09:14:15;;;;;;;0.88;0.40;;;11.30;89.50;;;;;;5057009;28;20083;-64
2023/11/14 09:16:41;;;;;;;2.17;0.50;;;11.30;89.50;;;;;;5057669;28;20044;-64
2023/11/14 09:19:07;;;;;;;4.03;0.60;;;11.30;89.60;;;;;;5058761;28;20033;-64
2023/11/14 09:21:34;;;;;;;2.58;0.55;;;11.30;89.60;;;;;;5058587;28;20428;-64
2023/11/14 09:24:00;;;;;;;1.30;0.90;;;11.30;89.50;;;;;;5058755;28;20075;-64
2023/11/14 09:26:25;;;;;;;1.25;0.60;;;11.30;89.50;;;;;;5057827;28;20032;-64
2023/11/14 09:28:52;;;;;;;2.05;0.75;;;11.30;89.50;;;;;;5058530;28;20099;-64
2023/11/14 09:31:18;;;;;;;2.10;0.60;;;11.40;89.50;;;;;;5058882;28;20036;-64
2023/11/14 09:33:45;;;;;;;1.65;0.70;;;11.40;89.50;;;;;;5058667;28;20048;-64
2023/11/14 09:36:11;;;;;;;2.13;0.60;;;11.40;89.50;;;;;;5057603;28;20120;-64
2023/11/14 09:38:38;;;;;;;2.60;0.63;;;11.40;90.10;;;;;;5057941;28;20115;-64
2023/11/14 09:41:05;;;;;;;2.33;0.50;;;11.40;89.20;;;;;;5058360;28;20021;-64
2023/11/14 09:43:34;;;;;;;5.18;0.68;;;11.40;89.20;;;;;;5058834;28;20033;-64
2023/11/14 09:46:01;;;;;;;2.00;0.40;;;11.50;89.10;;;;;;5058457;28;20567;-64
2023/11/14 09:48:26;;;;;;;3.08;0.63;;;11.50;88.80;;;;;;5057194;28;20147;-64
2023/11/14 09:50:53;;;;;;;1.67;0.50;;;11.50;88.60;;;;;;5058611;28;20048;-64
2023/11/14 09:53:24;;;;;;;1.90;0.40;;;11.50;88.60;;;;;;5058059;28;20094;-64
2023/11/14 09:55:53;;;;;;;2.15;0.57;;;11.60;88.30;;;;;;5057310;28;20032;-64
2023/11/14 09:58:22;;;;;;;1.42;0.70;;;11.60;88.20;;;;;;5057570;28;20029;-64
2023/11/14 10:00:49;;;;;;;2.90;0.60;;;11.60;88.00;;;;;;5057253;28;20045;-64
2023/11/14 10:03:15;;;;;;;1.33;0.65;;;11.60;88.10;;;;;;5057586;28;20045;-64
2023/11/14 10:05:41;;;;;;;3.53;0.60;;;11.70;88.10;;;;;;5057267;28;20025;-64
2023/11/14 10:08:13;;;;;;;4.30;0.70;;;11.60;87.70;;;;;;5058009;28;20093;-64
2023/11/14 10:10:40;;;;;;;2.22;0.50;;;11.60;87.60;;;;;;5055234;28;20461;-64
2023/11/14 10:13:19;;;;;;;1.05;0.50;;;11.70;87.60;;;;;;5056346;28;20031;-64
2023/11/14 10:15:45;;;;;;;2.08;0.63;;;11.70;86.60;;;;;;5055683;28;20460;-64
2023/11/14 10:18:11;;;;;;;4.13;0.88;;;11.80;87.40;;;;;;5057706;28;20032;-64
2023/11/14 10:20:40;;;;;;;1.20;0.45;;;11.80;87.20;;;;;;5056565;28;20119;-64
2023/11/14 10:23:07;;;;;;;2.10;0.60;;;11.80;86.70;;;;;;5057448;28;20021;-64
2023/11/14 10:25:33;;;;;;;2.15;0.40;;;11.80;86.90;;;;;;5057783;28;20037;-64
2023/11/14 10:28:04;;;;;;;1.23;0.50;;;11.80;86.70;;;;;;5057585;28;20037;-64
2023/11/14 10:30:42;;;;;;;1.75;0.40;;;11.90;86.50;;;;;;5056617;28;20076;-65
2023/11/14 10:33:10;;;;;;;2.33;0.65;;;11.90;86.00;;;;;;5056338;28;20508;-64
2023/11/14 10:35:36;;;;;;;1.90;0.65;;;11.90;86.30;;;;;;5057323;28;20507;-64
2023/11/14 10:38:21;;;;;;;1.75;0.40;;;11.90;86.30;;;;;;5057858;28;20043;-64
2023/11/14 10:40:49;;;;;;;0.82;0.50;;;11.90;85.90;;;;;;5056620;28;20067;-64
2023/11/14 10:43:31;;;;;;;1.55;0.43;;;12.00;86.20;;;;;;5056738;28;20029;-64
2023/11/14 10:46:06;;;;;;;1.83;0.40;;;11.90;85.80;;;;;;5056719;28;20037;-64
2023/11/14 10:48:32;;;;;;;1.45;0.40;;;12.00;85.90;;;;;;5056535;28;20514;-65
2023/11/14 10:50:58;;;;;;;1.42;0.30;;;12.00;86.00;;;;;;5057358;28;20037;-64
2023/11/14 10:53:24;;;;;;;0.82;0.28;;;12.00;86.00;;;;;;5056258;28;20044;-64
2023/11/14 10:55:51;;;;;;;0.80;0.30;;;12.00;85.90;;;;;;5056535;28;20033;-64
2023/11/14 10:58:17;;;;;;;1.52;0.50;;;12.00;85.70;;;;;;5056343;28;20033;-64
2023/11/14 11:00:44;;;;;;;0.82;0.50;;;12.00;86.60;;;;;;5057678;28;20045;-64
2023/11/14 11:03:09;;;;;;;1.17;0.50;;;12.10;85.70;;;;;;5057170;28;20044;-64
2023/11/14 11:05:35;;;;;;;1.05;0.60;;;12.00;85.70;;;;;;5056917;28;20033;-64
2023/11/14 11:08:06;;;;;;;0.73;0.20;;;12.10;85.70;;;;;;5057413;28;20465;-64
2023/11/14 11:10:34;;;;;;;0.80;0.30;;;12.00;85.50;;;;;;5053735;28;20048;-64
2023/11/14 11:13:14;;;;;;;2.38;0.22;;;12.00;85.70;;;;;;5056792;28;20455;-64
2023/11/14 11:15:44;;;;;;;2.10;0.40;;;12.10;85.70;;;;;;5055586;28;20040;-64
2023/11/14 11:18:10;;;;;;;0.70;0.30;;;12.10;85.80;;;;;;5054888;28;20078;-64
2023/11/14 11:20:36;;;;;;;1.50;0.50;;;12.10;85.80;;;;;;5054206;28;20412;-64
2023/11/14 11:23:14;;;;;;;1.13;0.50;;;12.10;85.70;;;;;;5056272;28;20025;-64
2023/11/14 11:25:44;;;;;;;3.20;0.40;;;12.10;85.60;;;;;;5056350;28;20025;-64
2023/11/14 11:28:22;;;;;;;2.25;0.50;;;12.20;85.80;;;;;;5056359;28;20496;-64
2023/11/14 11:31:11;;;;;;;0.85;0.40;;;12.20;85.50;;;;;;5056311;28;20500;-64
2023/11/14 11:33:44;;;;;;;2.15;0.50;;;12.20;85.30;;;;;;5055182;28;20430;-64
2023/11/14 11:36:25;;;;;;;0.80;0.50;;;12.20;85.40;;;;;;5055900;28;20036;-64
2023/11/14 11:38:55;;;;;;;0.65;0.40;;;12.20;85.20;;;;;;5056319;28;20033;-64
2023/11/14 11:41:22;;;;;;;2.33;0.63;;;12.30;86.00;;;;;;5056514;28;20374;-64
2023/11/14 11:44:16;;;;;;;0.98;0.50;;;12.30;85.50;;;;;;5056234;28;20036;-64
2023/11/14 11:46:44;;;;;;;1.58;0.57;;;12.30;85.00;;;;;;5055845;28;20024;-64
2023/11/14 11:49:12;;;;;;;0.85;0.40;;;12.30;85.40;;;;;;5056348;28;20048;-64
2023/11/14 11:51:47;;;;;;;0.82;0.50;;;12.30;85.20;;;;;;5056056;28;20404;-64
2023/11/14 11:54:28;;;;;;;2.15;0.60;;;12.30;85.00;;;;;;5055765;28;20111;-64
2023/11/14 11:57:19;;;;;;;1.63;0.30;;;12.40;84.70;;;;;;5056199;28;20070;-64
2023/11/14 11:59:48;;;;;;;0.65;0.43;;;12.40;84.30;;;;;;5056118;28;20033;-64
2023/11/14 12:02:18;;;;;;;1.30;0.30;;;12.40;85.00;;;;;;5055590;28;20244;-65
2023/11/14 12:04:45;;;;;;;1.48;0.32;;;12.40;85.70;;;;;;5055932;28;20492;-64
2023/11/14 12:07:10;;;;;;;3.05;0.60;;;12.40;85.00;;;;;;5055536;28;20035;-64
2023/11/14 12:09:37;;;;;;;1.30;0.50;;;12.40;85.00;;;;;;5056079;28;20112;-64
2023/11/14 12:12:03;;;;;;;1.33;0.40;;;12.50;85.10;;;;;;5053681;28;20591;-64
2023/11/14 12:14:29;;;;;;;0.63;0.40;;;12.50;84.90;;;;;;5053733;28;20049;-64
2023/11/14 12:17:06;;;;;;;1.42;0.50;;;12.50;85.00;;;;;;5056351;28;20036;-64
2023/11/14 12:19:32;;;;;;;0.40;0.30;;;12.50;84.90;;;;;;5056240;28;20497;-64
2023/11/14 12:21:58;;;;;;;0.75;0.30;;;12.50;84.90;;;;;;5055529;28;20045;-64
2023/11/14 12:24:24;;;;;;;1.27;0.43;;;12.60;84.90;;;;;;5053715;28;20386;-64
2023/11/14 12:26:50;;;;;;;0.50;0.30;;;12.60;84.70;;;;;;5056155;28;20033;-64
2023/11/14 12:29:15;;;;;;;1.58;0.40;;;12.50;84.60;;;;;;5055700;28;20373;-64
2023/11/14 12:31:47;;;;;;;0.80;0.40;;;12.50;84.60;;;;;;5060477;28;20081;-64
2023/11/14 12:34:29;;;;;;;2.08;0.47;;;12.60;84.50;;;;;;5058782;28;20126;-64
2023/11/14 12:37:19;;;;;;;2.55;0.45;;;12.60;84.10;;;;;;5059168;28;20516;-64
2023/11/14 12:40:09;;;;;;;1.27;0.50;;;12.60;84.00;;;;;;5060042;28;20040;-64
2023/11/14 12:42:35;;;;;;;2.65;0.70;;;12.60;83.90;;;;;;5059229;28;20135;-64
2023/11/14 12:45:08;;;;;;;1.85;0.40;;;12.50;84.20;;;;;;5059453;28;20017;-64
2023/11/14 12:47:36;;;;;;;0.75;0.38;;;12.50;83.90;;;;;;5059077;28;20044;-64